createdAt,value
2023-11-08T00:00:02.000Z,96771
2023-11-08T00:05:04.000Z,96770
2023-11-08T00:10:06.000Z,96774
2023-11-08T00:15:04.000Z,96774
2023-11-08T00:20:07.000Z,96766
2023-11-08T00:25:06.000Z,96766
2023-11-08T00:30:04.000Z,96763
2023-11-08T00:35:05.000Z,96780
2023-11-08T00:40:04.000Z,96771
2023-11-08T00:45:06.000Z,96780
2023-11-08T00:50:06.000Z,96778
2023-11-08T00:55:03.000Z,96791
2023-11-08T01:00:01.000Z,96792
2023-11-08T01:05:04.000Z,96794
2023-11-08T01:10:06.000Z,96790
2023-11-08T01:15:05.000Z,96795
2023-11-08T01:20:08.000Z,96786
2023-11-08T01:25:07.000Z,96783
2023-11-08T01:30:05.000Z,96788
2023-11-08T01:35:06.000Z,96789
2023-11-08T01:40:06.000Z,96790
2023-11-08T01:45:04.000Z,96790
2023-11-08T01:50:04.000Z,96788
2023-11-08T01:55:07.000Z,96783
2023-11-08T02:00:04.000Z,96799
2023-11-08T02:05:03.000Z,96789
2023-11-08T02:10:06.000Z,96792
2023-11-08T02:15:06.000Z,96786
2023-11-08T02:20:04.000Z,96781
2023-11-08T02:25:07.000Z,96769
2023-11-08T02:30:07.000Z,96780
2023-11-08T02:35:08.000Z,96772
2023-11-08T02:40:06.000Z,96772
2023-11-08T02:45:06.000Z,96776
2023-11-08T02:50:05.000Z,96782
2023-11-08T02:55:07.000Z,96783
2023-11-08T03:00:05.000Z,96783
2023-11-08T03:05:03.000Z,96778
2023-11-08T03:10:02.000Z,96779
2023-11-08T03:15:07.000Z,96782
2023-11-08T03:20:06.000Z,96772
2023-11-08T03:25:05.000Z,96770
2023-11-08T03:30:03.000Z,96777
2023-11-08T03:35:06.000Z,96781
2023-11-08T03:40:03.000Z,96771
2023-11-08T03:45:02.000Z,96780
2023-11-08T03:50:06.000Z,96791
2023-11-08T03:55:05.000Z,96791
2023-11-08T04:00:06.000Z,96783
2023-11-08T04:05:03.000Z,96792
2023-11-08T04:10:05.000Z,96794
2023-11-08T04:15:07.000Z,96789
2023-11-08T04:20:08.000Z,96784
2023-11-08T04:25:04.000Z,96805
2023-11-08T04:30:06.000Z,96802
2023-11-08T04:35:06.000Z,96801
2023-11-08T04:40:05.000Z,96814
2023-11-08T04:45:04.000Z,96808
2023-11-08T04:50:05.000Z,96802
2023-11-08T04:55:05.000Z,96793
2023-11-08T05:00:06.000Z,96810
2023-11-08T05:05:03.000Z,96802
2023-11-08T05:10:06.000Z,96797
2023-11-08T05:15:03.000Z,96804
2023-11-08T05:20:05.000Z,96810
2023-11-08T05:25:04.000Z,96806
2023-11-08T05:30:04.000Z,96807
2023-11-08T05:35:07.000Z,96805
2023-11-08T05:40:03.000Z,96802
2023-11-08T05:45:03.000Z,96792
2023-11-08T05:50:06.000Z,96800
2023-11-08T05:55:05.000Z,96800
2023-11-08T06:00:07.000Z,96793
2023-11-08T06:05:04.000Z,96787
2023-11-08T06:10:07.000Z,96800
2023-11-08T06:15:04.000Z,96802
2023-11-08T06:20:04.000Z,96818
2023-11-08T06:25:04.000Z,96825
2023-11-08T06:30:07.000Z,96824
2023-11-08T06:35:02.000Z,96832
2023-11-08T06:40:04.000Z,96834
2023-11-08T06:45:07.000Z,96829
2023-11-08T06:50:07.000Z,96838
2023-11-08T06:55:03.000Z,96833
2023-11-08T07:00:08.000Z,96836
2023-11-08T07:05:04.000Z,96846
2023-11-08T07:10:06.000Z,96853
2023-11-08T07:15:05.000Z,96856
2023-11-08T07:20:04.000Z,96870
2023-11-08T07:25:06.000Z,96876
2023-11-08T07:30:06.000Z,96873
2023-11-08T07:35:04.000Z,96868
2023-11-08T07:40:03.000Z,96860
2023-11-08T07:45:03.000Z,96867
2023-11-08T07:50:05.000Z,96877
2023-11-08T07:55:03.000Z,96874
2023-11-08T08:00:04.000Z,96881
2023-11-08T08:05:05.000Z,96883
2023-11-08T08:10:04.000Z,96879
2023-11-08T08:15:06.000Z,96878
2023-11-08T08:20:09.000Z,96883
2023-11-08T08:25:04.000Z,96878
2023-11-08T08:30:03.000Z,96888
2023-11-08T08:35:02.000Z,96888
2023-11-08T08:40:04.000Z,96877
2023-11-08T08:45:03.000Z,96883
2023-11-08T08:50:06.000Z,96896
2023-11-08T08:55:06.000Z,96895
2023-11-08T09:00:07.000Z,96895
2023-11-08T09:05:05.000Z,96896
2023-11-08T09:10:04.000Z,96897
2023-11-08T09:15:06.000Z,96887
2023-11-08T09:20:04.000Z,96895
2023-11-08T09:25:06.000Z,96898
2023-11-08T09:30:04.000Z,96886
2023-11-08T09:35:06.000Z,96904
2023-11-08T09:40:05.000Z,96904
2023-11-08T09:45:05.000Z,96886
2023-11-08T09:50:05.000Z,96892
2023-11-08T09:55:03.000Z,96880
2023-11-08T10:00:04.000Z,96892
2023-11-08T10:05:07.000Z,96882
2023-11-08T10:10:05.000Z,96880
2023-11-08T10:15:07.000Z,96882
2023-11-08T10:20:04.000Z,96864
2023-11-08T10:25:05.000Z,96864
2023-11-08T10:30:05.000Z,96856
2023-11-08T10:35:05.000Z,96851
2023-11-08T10:40:05.000Z,96848
2023-11-08T10:45:05.000Z,96840
2023-11-08T10:50:05.000Z,96831
2023-11-08T10:55:05.000Z,96831
2023-11-08T11:00:05.000Z,96832
2023-11-08T11:05:05.000Z,96810
2023-11-08T11:10:05.000Z,96794
2023-11-08T11:15:05.000Z,96786
2023-11-08T11:20:05.000Z,96778
2023-11-08T11:25:05.000Z,96775
2023-11-08T11:30:05.000Z,96781
2023-11-08T11:35:05.000Z,96776
2023-11-08T11:40:05.000Z,96767
2023-11-08T11:45:05.000Z,96749
2023-11-08T11:50:05.000Z,96736
2023-11-08T11:55:05.000Z,96735
2023-11-08T12:00:05.000Z,96732
2023-11-08T12:05:05.000Z,96714
2023-11-08T12:10:05.000Z,96712
2023-11-08T12:15:05.000Z,96703
2023-11-08T12:20:05.000Z,96704
2023-11-08T12:25:05.000Z,96705
2023-11-08T12:30:05.000Z,96695
2023-11-08T12:35:05.000Z,96684
2023-11-08T12:40:05.000Z,96674
2023-11-08T12:45:05.000Z,96670
2023-11-08T12:50:05.000Z,96661
2023-11-08T12:55:05.000Z,96652
2023-11-08T13:00:05.000Z,96646
2023-11-08T13:05:05.000Z,96644
2023-11-08T13:10:05.000Z,96635
2023-11-08T13:15:05.000Z,96630
2023-11-08T13:20:05.000Z,96621
2023-11-08T13:25:05.000Z,96611
2023-11-08T13:30:05.000Z,96603
2023-11-08T13:35:05.000Z,96593
2023-11-08T13:40:05.000Z,96583
2023-11-08T13:45:05.000Z,96573
2023-11-08T13:50:05.000Z,96563
2023-11-08T13:55:05.000Z,96564
2023-11-08T14:00:05.000Z,96564
2023-11-08T14:05:05.000Z,96560
2023-11-08T14:10:05.000Z,96551
2023-11-08T14:15:05.000Z,96557
2023-11-08T14:20:05.000Z,96554
2023-11-08T14:25:05.000Z,96569
2023-11-08T14:30:05.000Z,96553
2023-11-08T14:35:05.000Z,96548
2023-11-08T14:40:05.000Z,96546
2023-11-08T14:45:05.000Z,96538
2023-11-08T14:50:05.000Z,96538
2023-11-08T14:55:05.000Z,96523
2023-11-08T15:00:05.000Z,96516
2023-11-08T15:05:05.000Z,96514
2023-11-08T15:10:05.000Z,96516
2023-11-08T15:15:05.000Z,96520
2023-11-08T15:20:05.000Z,96516
2023-11-08T15:25:05.000Z,96512
2023-11-08T15:30:05.000Z,96511
2023-11-08T15:35:05.000Z,96509
2023-11-08T15:40:05.000Z,96498
2023-11-08T15:45:05.000Z,96491
2023-11-08T15:50:05.000Z,96481
2023-11-08T15:55:05.000Z,96501
2023-11-08T16:00:05.000Z,96497
2023-11-08T16:05:05.000Z,96489
2023-11-08T16:10:05.000Z,96484
2023-11-08T16:15:05.000Z,96477
2023-11-08T16:20:05.000Z,96480
2023-11-08T16:25:05.000Z,96484
2023-11-08T16:30:05.000Z,96459
2023-11-08T16:35:05.000Z,96458
2023-11-08T16:40:05.000Z,96449
2023-11-08T16:45:05.000Z,96456
2023-11-08T16:50:05.000Z,96454
2023-11-08T16:55:05.000Z,96455
2023-11-08T17:00:05.000Z,96461
2023-11-08T17:05:05.000Z,96442
2023-11-08T17:10:05.000Z,96465
2023-11-08T17:15:05.000Z,96469
2023-11-08T17:20:05.000Z,96461
2023-11-08T17:25:05.000Z,96468
2023-11-08T17:30:05.000Z,96466
2023-11-08T17:35:05.000Z,96468
2023-11-08T17:40:05.000Z,96457
2023-11-08T17:45:05.000Z,96453
2023-11-08T17:50:05.000Z,96456
2023-11-08T17:55:05.000Z,96441
2023-11-08T18:00:05.000Z,96434
2023-11-08T18:05:05.000Z,96429
2023-11-08T18:10:05.000Z,96435
2023-11-08T18:15:05.000Z,96443
2023-11-08T18:20:05.000Z,96435
2023-11-08T18:25:05.000Z,96419
2023-11-08T18:30:05.000Z,96418
2023-11-08T18:35:05.000Z,96423
2023-11-08T18:40:05.000Z,96432
2023-11-08T18:45:05.000Z,96436
2023-11-08T18:50:05.000Z,96416
2023-11-08T18:55:05.000Z,96407
2023-11-08T19:00:05.000Z,96404
2023-11-08T19:05:05.000Z,96399
2023-11-08T19:10:05.000Z,96394
2023-11-08T19:15:05.000Z,96382
2023-11-08T19:20:05.000Z,96381
2023-11-08T19:25:05.000Z,96378
2023-11-08T19:30:05.000Z,96362
2023-11-08T19:35:05.000Z,96368
2023-11-08T19:40:05.000Z,96364
2023-11-08T19:45:05.000Z,96362
2023-11-08T19:50:05.000Z,96356
2023-11-08T19:55:05.000Z,96349
2023-11-08T20:00:05.000Z,96352
2023-11-08T20:05:05.000Z,96342
2023-11-08T20:10:05.000Z,96337
2023-11-08T20:15:05.000Z,96344
2023-11-08T20:20:05.000Z,96345
2023-11-08T20:25:05.000Z,96331
2023-11-08T20:30:05.000Z,96329
2023-11-08T20:35:05.000Z,96332
2023-11-08T20:40:05.000Z,96321
2023-11-08T20:45:05.000Z,96322
2023-11-08T20:50:05.000Z,96322
2023-11-08T20:55:05.000Z,96298
2023-11-08T21:00:05.000Z,96306
2023-11-08T21:05:05.000Z,96301
2023-11-08T21:10:05.000Z,96297
2023-11-08T21:15:05.000Z,96301
2023-11-08T21:20:05.000Z,96290
2023-11-08T21:25:05.000Z,96297
2023-11-08T21:30:05.000Z,96294
2023-11-08T21:35:05.000Z,96288
2023-11-08T21:40:05.000Z,96287
2023-11-08T21:45:05.000Z,96288
2023-11-08T21:50:05.000Z,96291
2023-11-08T21:55:05.000Z,96284
2023-11-08T22:00:05.000Z,96290
2023-11-08T22:05:05.000Z,96282
2023-11-08T22:10:05.000Z,96278
2023-11-08T22:15:05.000Z,96276
2023-11-08T22:20:05.000Z,96270
2023-11-08T22:25:05.000Z,96259
2023-11-08T22:30:05.000Z,96259
2023-11-08T22:35:05.000Z,96257
2023-11-08T22:40:05.000Z,96261
2023-11-08T22:45:05.000Z,96248
2023-11-08T22:50:05.000Z,96237
2023-11-08T22:55:05.000Z,96244
2023-11-08T23:00:05.000Z,96248
2023-11-08T23:05:05.000Z,96245
2023-11-08T23:10:05.000Z,96247
2023-11-08T23:15:05.000Z,96235
2023-11-08T23:20:05.000Z,96241
2023-11-08T23:25:05.000Z,96241
2023-11-08T23:30:05.000Z,96237
2023-11-08T23:35:05.000Z,96224
2023-11-08T23:40:05.000Z,96220
2023-11-08T23:45:05.000Z,96221
2023-11-08T23:50:05.000Z,96208
2023-11-08T23:55:05.000Z,96213
